sensor_id;sensor_type;location;lat;lon;timestamp;P1;durP1;ratioP1;P2;durP2;ratioP2
12788;SDS011;6458;42.710;23.192;2023-07-02T00:02:15;7.80;;;6.17;;
12788;SDS011;6458;42.710;23.192;2023-07-02T00:04:42;7.40;;;6.00;;
12788;SDS011;6458;42.710;23.192;2023-07-02T00:07:08;7.80;;;5.80;;
12788;SDS011;6458;42.710;23.192;2023-07-02T00:09:35;7.57;;;5.40;;
12788;SDS011;6458;42.710;23.192;2023-07-02T00:12:02;7.13;;;5.70;;
12788;SDS011;6458;42.710;23.192;2023-07-02T00:14:30;5.60;;;5.07;;
12788;SDS011;6458;42.710;23.192;2023-07-02T00:16:57;9.83;;;5.67;;
12788;SDS011;6458;42.710;23.192;2023-07-02T00:19:24;9.40;;;4.87;;
12788;SDS011;6458;42.710;23.192;2023-07-02T00:21:50;6.30;;;5.40;;
12788;SDS011;6458;42.710;23.192;2023-07-02T00:24:18;6.20;;;5.20;;
12788;SDS011;6458;42.710;23.192;2023-07-02T00:26:45;7.03;;;5.77;;
12788;SDS011;6458;42.710;23.192;2023-07-02T00:29:11;8.20;;;5.47;;
12788;SDS011;6458;42.710;23.192;2023-07-02T00:31:39;6.30;;;5.47;;
12788;SDS011;6458;42.710;23.192;2023-07-02T00:34:06;6.87;;;5.67;;
12788;SDS011;6458;42.710;23.192;2023-07-02T00:36:33;9.30;;;5.90;;
12788;SDS011;6458;42.710;23.192;2023-07-02T00:38:59;5.67;;;5.17;;
12788;SDS011;6458;42.710;23.192;2023-07-02T00:41:26;7.17;;;5.40;;
12788;SDS011;6458;42.710;23.192;2023-07-02T00:43:53;8.10;;;5.50;;
12788;SDS011;6458;42.710;23.192;2023-07-02T00:46:21;6.57;;;5.93;;
12788;SDS011;6458;42.710;23.192;2023-07-02T00:48:49;5.97;;;5.37;;
12788;SDS011;6458;42.710;23.192;2023-07-02T00:51:17;7.00;;;6.30;;
12788;SDS011;6458;42.710;23.192;2023-07-02T00:53:44;10.47;;;5.70;;
12788;SDS011;6458;42.710;23.192;2023-07-02T00:56:11;5.97;;;5.37;;
12788;SDS011;6458;42.710;23.192;2023-07-02T00:58:39;8.30;;;5.83;;
12788;SDS011;6458;42.710;23.192;2023-07-02T01:01:06;6.97;;;5.83;;
12788;SDS011;6458;42.710;23.192;2023-07-02T01:03:34;6.80;;;5.27;;
12788;SDS011;6458;42.710;23.192;2023-07-02T01:06:03;5.67;;;5.07;;
12788;SDS011;6458;42.710;23.192;2023-07-02T01:08:30;7.80;;;5.87;;
12788;SDS011;6458;42.710;23.192;2023-07-02T01:10:57;6.73;;;6.03;;
12788;SDS011;6458;42.710;23.192;2023-07-02T01:13:25;8.73;;;6.53;;
12788;SDS011;6458;42.710;23.192;2023-07-02T01:15:52;8.53;;;6.47;;
12788;SDS011;6458;42.710;23.192;2023-07-02T01:18:19;8.70;;;6.63;;
12788;SDS011;6458;42.710;23.192;2023-07-02T01:20:47;7.27;;;5.87;;
12788;SDS011;6458;42.710;23.192;2023-07-02T01:23:14;7.50;;;6.70;;
12788;SDS011;6458;42.710;23.192;2023-07-02T01:25:41;9.70;;;6.73;;
12788;SDS011;6458;42.710;23.192;2023-07-02T01:28:10;8.17;;;6.00;;
12788;SDS011;6458;42.710;23.192;2023-07-02T01:30:39;8.10;;;6.40;;
12788;SDS011;6458;42.710;23.192;2023-07-02T01:33:05;7.27;;;6.37;;
12788;SDS011;6458;42.710;23.192;2023-07-02T01:35:32;7.37;;;6.43;;
12788;SDS011;6458;42.710;23.192;2023-07-02T01:38:00;6.67;;;6.07;;
12788;SDS011;6458;42.710;23.192;2023-07-02T01:40:27;8.50;;;6.80;;
12788;SDS011;6458;42.710;23.192;2023-07-02T01:42:53;7.73;;;6.43;;
12788;SDS011;6458;42.710;23.192;2023-07-02T01:45:20;7.70;;;6.90;;
12788;SDS011;6458;42.710;23.192;2023-07-02T01:47:46;7.70;;;6.57;;
12788;SDS011;6458;42.710;23.192;2023-07-02T01:50:13;8.73;;;7.03;;
12788;SDS011;6458;42.710;23.192;2023-07-02T01:52:40;12.83;;;7.43;;
12788;SDS011;6458;42.710;23.192;2023-07-02T01:55:08;8.50;;;6.77;;
12788;SDS011;6458;42.710;23.192;2023-07-02T01:57:35;9.10;;;7.07;;
12788;SDS011;6458;42.710;23.192;2023-07-02T02:00:02;8.80;;;7.67;;
12788;SDS011;6458;42.710;23.192;2023-07-02T02:02:29;9.57;;;7.53;;
12788;SDS011;6458;42.710;23.192;2023-07-02T02:04:55;7.63;;;6.40;;
12788;SDS011;6458;42.710;23.192;2023-07-02T02:07:22;8.90;;;7.30;;
12788;SDS011;6458;42.710;23.192;2023-07-02T02:09:49;7.87;;;6.63;;
12788;SDS011;6458;42.710;23.192;2023-07-02T02:12:17;9.17;;;6.63;;
12788;SDS011;6458;42.710;23.192;2023-07-02T02:14:44;7.43;;;6.70;;
12788;SDS011;6458;42.710;23.192;2023-07-02T02:17:10;9.83;;;7.23;;
12788;SDS011;6458;42.710;23.192;2023-07-02T02:19:37;8.57;;;6.73;;
12788;SDS011;6458;42.710;23.192;2023-07-02T02:22:04;9.83;;;7.53;;
12788;SDS011;6458;42.710;23.192;2023-07-02T02:24:31;7.40;;;6.60;;
12788;SDS011;6458;42.710;23.192;2023-07-02T02:26:57;8.33;;;6.93;;
12788;SDS011;6458;42.710;23.192;2023-07-02T02:29:25;8.37;;;6.43;;
12788;SDS011;6458;42.710;23.192;2023-07-02T02:31:52;7.90;;;6.57;;
12788;SDS011;6458;42.710;23.192;2023-07-02T02:34:19;7.77;;;6.90;;
12788;SDS011;6458;42.710;23.192;2023-07-02T02:36:45;12.43;;;7.70;;
12788;SDS011;6458;42.710;23.192;2023-07-02T02:39:12;7.77;;;6.53;;
12788;SDS011;6458;42.710;23.192;2023-07-02T02:41:39;8.30;;;7.00;;
12788;SDS011;6458;42.710;23.192;2023-07-02T02:44:06;8.60;;;7.30;;
12788;SDS011;6458;42.710;23.192;2023-07-02T03:46:15;9.93;;;7.57;;
12788;SDS011;6458;42.710;23.192;2023-07-02T03:48:43;7.77;;;6.53;;
12788;SDS011;6458;42.710;23.192;2023-07-02T03:51:10;11.67;;;8.47;;
12788;SDS011;6458;42.710;23.192;2023-07-02T03:53:37;10.83;;;7.30;;
12788;SDS011;6458;42.710;23.192;2023-07-02T03:56:04;9.37;;;7.90;;
12788;SDS011;6458;42.710;23.192;2023-07-02T03:58:31;13.43;;;8.43;;
12788;SDS011;6458;42.710;23.192;2023-07-02T04:00:58;13.47;;;8.53;;
12788;SDS011;6458;42.710;23.192;2023-07-02T04:03:26;12.20;;;8.63;;
12788;SDS011;6458;42.710;23.192;2023-07-02T04:05:53;12.20;;;8.10;;
12788;SDS011;6458;42.710;23.192;2023-07-02T04:08:20;10.83;;;8.53;;
12788;SDS011;6458;42.710;23.192;2023-07-02T04:10:47;13.53;;;8.00;;
12788;SDS011;6458;42.710;23.192;2023-07-02T04:13:14;10.90;;;7.70;;
12788;SDS011;6458;42.710;23.192;2023-07-02T04:15:40;9.17;;;7.70;;
12788;SDS011;6458;42.710;23.192;2023-07-02T04:18:07;10.30;;;7.90;;
12788;SDS011;6458;42.710;23.192;2023-07-02T04:20:35;9.30;;;7.33;;
12788;SDS011;6458;42.710;23.192;2023-07-02T04:23:03;10.00;;;7.73;;
12788;SDS011;6458;42.710;23.192;2023-07-02T04:25:30;9.53;;;7.83;;
12788;SDS011;6458;42.710;23.192;2023-07-02T04:27:56;9.47;;;7.73;;
12788;SDS011;6458;42.710;23.192;2023-07-02T04:30:24;10.23;;;7.53;;
12788;SDS011;6458;42.710;23.192;2023-07-02T04:32:51;11.40;;;8.20;;
12788;SDS011;6458;42.710;23.192;2023-07-02T04:35:18;9.60;;;7.40;;
12788;SDS011;6458;42.710;23.192;2023-07-02T04:37:46;11.23;;;7.80;;
12788;SDS011;6458;42.710;23.192;2023-07-02T04:40:13;11.20;;;8.10;;
12788;SDS011;6458;42.710;23.192;2023-07-02T04:42:41;10.40;;;7.80;;
12788;SDS011;6458;42.710;23.192;2023-07-02T04:45:12;12.20;;;7.70;;
12788;SDS011;6458;42.710;23.192;2023-07-02T04:47:40;8.83;;;7.23;;
12788;SDS011;6458;42.710;23.192;2023-07-02T04:50:07;9.10;;;7.03;;
12788;SDS011;6458;42.710;23.192;2023-07-02T04:52:33;11.40;;;7.30;;
12788;SDS011;6458;42.710;23.192;2023-07-02T04:55:01;10.40;;;7.77;;
12788;SDS011;6458;42.710;23.192;2023-07-02T04:57:28;11.23;;;7.30;;
12788;SDS011;6458;42.710;23.192;2023-07-02T04:59:55;8.93;;;7.33;;
12788;SDS011;6458;42.710;23.192;2023-07-02T05:02:21;10.77;;;7.70;;
12788;SDS011;6458;42.710;23.192;2023-07-02T05:04:48;7.57;;;6.80;;
12788;SDS011;6458;42.710;23.192;2023-07-02T05:07:15;10.53;;;7.60;;
12788;SDS011;6458;42.710;23.192;2023-07-02T05:09:42;9.07;;;7.97;;
12788;SDS011;6458;42.710;23.192;2023-07-02T05:12:10;10.50;;;7.70;;
12788;SDS011;6458;42.710;23.192;2023-07-02T05:14:37;12.60;;;7.77;;
12788;SDS011;6458;42.710;23.192;2023-07-02T05:17:04;10.00;;;7.50;;
12788;SDS011;6458;42.710;23.192;2023-07-02T05:25:36;10.57;;;7.77;;
12788;SDS011;6458;42.710;23.192;2023-07-02T05:28:04;13.53;;;7.77;;
12788;SDS011;6458;42.710;23.192;2023-07-02T05:30:31;12.77;;;8.50;;
12788;SDS011;6458;42.710;23.192;2023-07-02T05:32:57;13.07;;;8.17;;
12788;SDS011;6458;42.710;23.192;2023-07-02T05:35:24;8.63;;;7.03;;
12788;SDS011;6458;42.710;23.192;2023-07-02T05:37:50;10.13;;;7.60;;
12788;SDS011;6458;42.710;23.192;2023-07-02T05:40:17;10.27;;;7.10;;
12788;SDS011;6458;42.710;23.192;2023-07-02T05:42:44;10.60;;;7.53;;
12788;SDS011;6458;42.710;23.192;2023-07-02T05:45:12;12.77;;;7.73;;
12788;SDS011;6458;42.710;23.192;2023-07-02T05:47:39;10.33;;;8.80;;
12788;SDS011;6458;42.710;23.192;2023-07-02T05:50:06;8.93;;;7.80;;
12788;SDS011;6458;42.710;23.192;2023-07-02T05:52:33;9.97;;;7.30;;
12788;SDS011;6458;42.710;23.192;2023-07-02T05:55:00;10.97;;;7.90;;
12788;SDS011;6458;42.710;23.192;2023-07-02T05:57:27;11.13;;;7.67;;
12788;SDS011;6458;42.710;23.192;2023-07-02T05:59:53;9.93;;;7.57;;
12788;SDS011;6458;42.710;23.192;2023-07-02T06:02:22;7.83;;;7.00;;
12788;SDS011;6458;42.710;23.192;2023-07-02T06:04:48;9.17;;;7.40;;
12788;SDS011;6458;42.710;23.192;2023-07-02T06:07:15;8.27;;;7.13;;
12788;SDS011;6458;42.710;23.192;2023-07-02T06:09:41;8.30;;;7.50;;
12788;SDS011;6458;42.710;23.192;2023-07-02T06:12:08;7.53;;;6.03;;
12788;SDS011;6458;42.710;23.192;2023-07-02T06:14:35;8.57;;;7.67;;
12788;SDS011;6458;42.710;23.192;2023-07-02T06:17:01;8.77;;;6.30;;
12788;SDS011;6458;42.710;23.192;2023-07-02T06:19:32;9.73;;;8.17;;
12788;SDS011;6458;42.710;23.192;2023-07-02T06:21:59;10.60;;;7.80;;
12788;SDS011;6458;42.710;23.192;2023-07-02T06:24:25;9.73;;;7.93;;
12788;SDS011;6458;42.710;23.192;2023-07-02T06:26:52;8.37;;;7.47;;
12788;SDS011;6458;42.710;23.192;2023-07-02T06:29:19;10.77;;;7.93;;
12788;SDS011;6458;42.710;23.192;2023-07-02T06:31:45;9.63;;;7.63;;
12788;SDS011;6458;42.710;23.192;2023-07-02T06:34:12;11.27;;;7.70;;
12788;SDS011;6458;42.710;23.192;2023-07-02T06:36:41;9.87;;;6.00;;
12788;SDS011;6458;42.710;23.192;2023-07-02T06:39:07;7.03;;;6.07;;
12788;SDS011;6458;42.710;23.192;2023-07-02T06:41:34;5.87;;;5.30;;
12788;SDS011;6458;42.710;23.192;2023-07-02T06:44:01;6.70;;;5.03;;
12788;SDS011;6458;42.710;23.192;2023-07-02T06:46:28;6.43;;;5.80;;
12788;SDS011;6458;42.710;23.192;2023-07-02T06:48:54;6.33;;;5.73;;
12788;SDS011;6458;42.710;23.192;2023-07-02T06:51:21;4.27;;;4.00;;
12788;SDS011;6458;42.710;23.192;2023-07-02T06:53:49;5.40;;;5.00;;
12788;SDS011;6458;42.710;23.192;2023-07-02T06:56:16;5.57;;;4.40;;
12788;SDS011;6458;42.710;23.192;2023-07-02T06:58:42;8.40;;;4.80;;
12788;SDS011;6458;42.710;23.192;2023-07-02T07:01:09;5.03;;;4.63;;
12788;SDS011;6458;42.710;23.192;2023-07-02T07:03:36;4.50;;;4.17;;
12788;SDS011;6458;42.710;23.192;2023-07-02T07:06:03;4.07;;;3.77;;
12788;SDS011;6458;42.710;23.192;2023-07-02T07:08:29;4.53;;;4.13;;
12788;SDS011;6458;42.710;23.192;2023-07-02T07:10:57;4.70;;;4.23;;
12788;SDS011;6458;42.710;23.192;2023-07-02T07:13:24;4.20;;;3.90;;
12788;SDS011;6458;42.710;23.192;2023-07-02T07:15:51;4.13;;;3.73;;
12788;SDS011;6458;42.710;23.192;2023-07-02T07:18:17;4.17;;;3.90;;
12788;SDS011;6458;42.710;23.192;2023-07-02T07:20:44;4.20;;;3.80;;
12788;SDS011;6458;42.710;23.192;2023-07-02T07:23:11;5.20;;;3.80;;
12788;SDS011;6458;42.710;23.192;2023-07-02T07:25:38;4.50;;;4.10;;
12788;SDS011;6458;42.710;23.192;2023-07-02T07:28:06;4.77;;;4.33;;
12788;SDS011;6458;42.710;23.192;2023-07-02T07:30:37;4.40;;;4.10;;
12788;SDS011;6458;42.710;23.192;2023-07-02T07:33:03;4.53;;;3.93;;
12788;SDS011;6458;42.710;23.192;2023-07-02T07:35:30;4.60;;;4.17;;
12788;SDS011;6458;42.710;23.192;2023-07-02T07:37:56;4.07;;;3.67;;
12788;SDS011;6458;42.710;23.192;2023-07-02T07:40:23;4.10;;;3.80;;
12788;SDS011;6458;42.710;23.192;2023-07-02T07:42:50;5.57;;;3.67;;
12788;SDS011;6458;42.710;23.192;2023-07-02T07:45:18;4.03;;;3.73;;
12788;SDS011;6458;42.710;23.192;2023-07-02T07:47:45;4.20;;;3.90;;
12788;SDS011;6458;42.710;23.192;2023-07-02T07:50:11;4.17;;;3.87;;
12788;SDS011;6458;42.710;23.192;2023-07-02T07:52:38;4.13;;;3.80;;
12788;SDS011;6458;42.710;23.192;2023-07-02T07:55:05;5.47;;;4.97;;
12788;SDS011;6458;42.710;23.192;2023-07-02T07:57:33;6.70;;;5.80;;
12788;SDS011;6458;42.710;23.192;2023-07-02T08:00:00;7.43;;;6.73;;
12788;SDS011;6458;42.710;23.192;2023-07-02T08:02:28;6.20;;;5.70;;
12788;SDS011;6458;42.710;23.192;2023-07-02T08:04:54;6.07;;;5.43;;
12788;SDS011;6458;42.710;23.192;2023-07-02T08:07:21;6.27;;;5.67;;
12788;SDS011;6458;42.710;23.192;2023-07-02T08:09:48;6.90;;;5.40;;
12788;SDS011;6458;42.710;23.192;2023-07-02T08:12:14;5.50;;;4.10;;
12788;SDS011;6458;42.710;23.192;2023-07-02T08:14:41;4.87;;;4.10;;
12788;SDS011;6458;42.710;23.192;2023-07-02T08:17:08;4.47;;;4.07;;
12788;SDS011;6458;42.710;23.192;2023-07-02T08:19:36;4.33;;;3.87;;
12788;SDS011;6458;42.710;23.192;2023-07-02T08:22:03;5.07;;;3.87;;
12788;SDS011;6458;42.710;23.192;2023-07-02T08:24:29;4.20;;;3.80;;
12788;SDS011;6458;42.710;23.192;2023-07-02T08:26:56;4.67;;;4.20;;
12788;SDS011;6458;42.710;23.192;2023-07-02T08:29:23;5.10;;;4.13;;
12788;SDS011;6458;42.710;23.192;2023-07-02T08:31:50;4.27;;;3.90;;
12788;SDS011;6458;42.710;23.192;2023-07-02T08:34:16;3.90;;;3.50;;
12788;SDS011;6458;42.710;23.192;2023-07-02T08:36:45;4.67;;;3.83;;
12788;SDS011;6458;42.710;23.192;2023-07-02T08:39:11;4.93;;;4.43;;
12788;SDS011;6458;42.710;23.192;2023-07-02T08:41:42;6.20;;;3.90;;
12788;SDS011;6458;42.710;23.192;2023-07-02T08:44:09;4.10;;;3.80;;
12788;SDS011;6458;42.710;23.192;2023-07-02T08:46:37;3.97;;;3.60;;
12788;SDS011;6458;42.710;23.192;2023-07-02T08:49:03;4.97;;;3.60;;
12788;SDS011;6458;42.710;23.192;2023-07-02T08:51:30;5.20;;;4.00;;
12788;SDS011;6458;42.710;23.192;2023-07-02T08:53:58;3.83;;;3.50;;
12788;SDS011;6458;42.710;23.192;2023-07-02T08:56:25;3.10;;;2.90;;
12788;SDS011;6458;42.710;23.192;2023-07-02T08:58:52;3.30;;;3.10;;
12788;SDS011;6458;42.710;23.192;2023-07-02T09:01:19;3.70;;;3.50;;
12788;SDS011;6458;42.710;23.192;2023-07-02T09:03:45;3.67;;;3.47;;
12788;SDS011;6458;42.710;23.192;2023-07-02T09:06:12;4.53;;;3.35;;
12788;SDS011;6458;42.710;23.192;2023-07-02T09:08:39;5.43;;;3.60;;
12788;SDS011;6458;42.710;23.192;2023-07-02T09:11:08;3.97;;;3.15;;
12788;SDS011;6458;42.710;23.192;2023-07-02T09:13:44;3.35;;;3.03;;
12788;SDS011;6458;42.710;23.192;2023-07-02T09:16:24;3.72;;;3.40;;
12788;SDS011;6458;42.710;23.192;2023-07-02T09:18:55;4.17;;;3.80;;
12788;SDS011;6458;42.710;23.192;2023-07-02T09:21:22;3.30;;;3.10;;
12788;SDS011;6458;42.710;23.192;2023-07-02T09:23:48;2.90;;;2.70;;
12788;SDS011;6458;42.710;23.192;2023-07-02T09:26:20;3.43;;;3.23;;
12788;SDS011;6458;42.710;23.192;2023-07-02T09:28:47;3.63;;;3.20;;
12788;SDS011;6458;42.710;23.192;2023-07-02T09:31:13;4.10;;;3.67;;
12788;SDS011;6458;42.710;23.192;2023-07-02T09:33:41;4.07;;;3.67;;
12788;SDS011;6458;42.710;23.192;2023-07-02T09:36:07;3.10;;;3.00;;
12788;SDS011;6458;42.710;23.192;2023-07-02T09:38:34;4.17;;;3.30;;
12788;SDS011;6458;42.710;23.192;2023-07-02T09:41:00;3.67;;;3.47;;
12788;SDS011;6458;42.710;23.192;2023-07-02T09:43:29;4.33;;;4.03;;
12788;SDS011;6458;42.710;23.192;2023-07-02T09:45:57;4.27;;;3.40;;
12788;SDS011;6458;42.710;23.192;2023-07-02T09:48:24;4.60;;;4.20;;
12788;SDS011;6458;42.710;23.192;2023-07-02T09:50:51;4.23;;;3.90;;
12788;SDS011;6458;42.710;23.192;2023-07-02T09:53:18;3.90;;;3.57;;
12788;SDS011;6458;42.710;23.192;2023-07-02T09:55:45;4.03;;;3.73;;
12788;SDS011;6458;42.710;23.192;2023-07-02T09:58:11;4.13;;;3.73;;
12788;SDS011;6458;42.710;23.192;2023-07-02T10:00:39;3.80;;;3.33;;
12788;SDS011;6458;42.710;23.192;2023-07-02T10:03:06;3.70;;;3.40;;
12788;SDS011;6458;42.710;23.192;2023-07-02T10:05:33;3.97;;;3.40;;
12788;SDS011;6458;42.710;23.192;2023-07-02T10:08:11;3.57;;;3.27;;
12788;SDS011;6458;42.710;23.192;2023-07-02T10:10:37;4.10;;;3.70;;
12788;SDS011;6458;42.710;23.192;2023-07-02T10:13:04;4.23;;;3.93;;
12788;SDS011;6458;42.710;23.192;2023-07-02T10:15:31;4.00;;;3.80;;
12788;SDS011;6458;42.710;23.192;2023-07-02T10:18:04;5.10;;;3.90;;
12788;SDS011;6458;42.710;23.192;2023-07-02T10:20:31;4.67;;;4.00;;
12788;SDS011;6458;42.710;23.192;2023-07-02T10:22:58;4.40;;;4.10;;
12788;SDS011;6458;42.710;23.192;2023-07-02T10:25:24;4.70;;;4.30;;
12788;SDS011;6458;42.710;23.192;2023-07-02T10:27:52;4.17;;;3.87;;
12788;SDS011;6458;42.710;23.192;2023-07-02T10:30:18;5.30;;;4.33;;
12788;SDS011;6458;42.710;23.192;2023-07-02T10:32:45;4.53;;;4.13;;
12788;SDS011;6458;42.710;23.192;2023-07-02T10:35:17;4.67;;;4.27;;
12788;SDS011;6458;42.710;23.192;2023-07-02T10:37:44;4.13;;;3.77;;
12788;SDS011;6458;42.710;23.192;2023-07-02T10:40:11;3.97;;;3.77;;
12788;SDS011;6458;42.710;23.192;2023-07-02T10:42:47;4.80;;;4.40;;
12788;SDS011;6458;42.710;23.192;2023-07-02T10:45:14;4.20;;;3.90;;
12788;SDS011;6458;42.710;23.192;2023-07-02T10:47:41;4.93;;;4.47;;
12788;SDS011;6458;42.710;23.192;2023-07-02T10:50:13;4.70;;;4.40;;
12788;SDS011;6458;42.710;23.192;2023-07-02T10:52:42;4.60;;;4.20;;
12788;SDS011;6458;42.710;23.192;2023-07-02T10:55:08;4.32;;;4.05;;
12788;SDS011;6458;42.710;23.192;2023-07-02T10:57:35;3.90;;;3.60;;
12788;SDS011;6458;42.710;23.192;2023-07-02T11:00:04;4.07;;;3.78;;
12788;SDS011;6458;42.710;23.192;2023-07-02T11:02:33;3.95;;;3.75;;
12788;SDS011;6458;42.710;23.192;2023-07-02T11:05:00;4.55;;;4.15;;
12788;SDS011;6458;42.710;23.192;2023-07-02T11:07:27;4.30;;;4.10;;
12788;SDS011;6458;42.710;23.192;2023-07-02T11:09:55;4.30;;;3.90;;
12788;SDS011;6458;42.710;23.192;2023-07-02T11:12:27;5.93;;;4.70;;
12788;SDS011;6458;42.710;23.192;2023-07-02T11:14:53;4.57;;;4.10;;
12788;SDS011;6458;42.710;23.192;2023-07-02T11:17:24;4.90;;;4.50;;
12788;SDS011;6458;42.710;23.192;2023-07-02T11:19:51;3.83;;;3.63;;
12788;SDS011;6458;42.710;23.192;2023-07-02T11:22:18;4.87;;;4.40;;
12788;SDS011;6458;42.710;23.192;2023-07-02T11:24:44;3.60;;;3.40;;
12788;SDS011;6458;42.710;23.192;2023-07-02T11:27:20;4.07;;;3.77;;
12788;SDS011;6458;42.710;23.192;2023-07-02T11:29:47;3.90;;;3.60;;
12788;SDS011;6458;42.710;23.192;2023-07-02T11:32:13;2.87;;;2.73;;
12788;SDS011;6458;42.710;23.192;2023-07-02T11:34:40;3.07;;;2.87;;
12788;SDS011;6458;42.710;23.192;2023-07-02T11:37:07;3.20;;;2.90;;
12788;SDS011;6458;42.710;23.192;2023-07-02T11:39:33;3.10;;;2.90;;
12788;SDS011;6458;42.710;23.192;2023-07-02T11:42:00;3.23;;;3.03;;
12788;SDS011;6458;42.710;23.192;2023-07-02T11:44:28;3.50;;;3.30;;
12788;SDS011;6458;42.710;23.192;2023-07-02T11:46:55;3.30;;;3.17;;
12788;SDS011;6458;42.710;23.192;2023-07-02T11:49:22;3.77;;;3.50;;
12788;SDS011;6458;42.710;23.192;2023-07-02T11:51:49;3.53;;;3.30;;
12788;SDS011;6458;42.710;23.192;2023-07-02T11:54:16;3.73;;;3.43;;
12788;SDS011;6458;42.710;23.192;2023-07-02T11:56:43;3.63;;;3.40;;
12788;SDS011;6458;42.710;23.192;2023-07-02T11:59:10;3.60;;;3.40;;
12788;SDS011;6458;42.710;23.192;2023-07-02T12:01:38;4.20;;;3.97;;
12788;SDS011;6458;42.710;23.192;2023-07-02T12:04:05;4.40;;;4.07;;
12788;SDS011;6458;42.710;23.192;2023-07-02T12:06:32;5.27;;;4.77;;
12788;SDS011;6458;42.710;23.192;2023-07-02T12:08:59;5.20;;;4.70;;
12788;SDS011;6458;42.710;23.192;2023-07-02T12:11:26;5.83;;;5.33;;
12788;SDS011;6458;42.710;23.192;2023-07-02T12:13:52;5.80;;;5.20;;
12788;SDS011;6458;42.710;23.192;2023-07-02T12:16:19;5.77;;;5.27;;
12788;SDS011;6458;42.710;23.192;2023-07-02T12:18:47;5.03;;;4.73;;
12788;SDS011;6458;42.710;23.192;2023-07-02T12:21:13;5.43;;;5.03;;
12788;SDS011;6458;42.710;23.192;2023-07-02T12:23:40;5.47;;;5.00;;
12788;SDS011;6458;42.710;23.192;2023-07-02T12:26:07;5.93;;;5.03;;
12788;SDS011;6458;42.710;23.192;2023-07-02T12:28:34;5.50;;;5.10;;
12788;SDS011;6458;42.710;23.192;2023-07-02T12:31:00;6.00;;;5.50;;
12788;SDS011;6458;42.710;23.192;2023-07-02T12:33:27;5.53;;;5.03;;
12788;SDS011;6458;42.710;23.192;2023-07-02T12:35:55;5.57;;;5.17;;
12788;SDS011;6458;42.710;23.192;2023-07-02T12:38:22;5.83;;;5.33;;
12788;SDS011;6458;42.710;23.192;2023-07-02T12:40:49;5.40;;;4.90;;
12788;SDS011;6458;42.710;23.192;2023-07-02T12:43:16;6.27;;;5.67;;
12788;SDS011;6458;42.710;23.192;2023-07-02T12:45:42;6.73;;;5.80;;
12788;SDS011;6458;42.710;23.192;2023-07-02T12:48:09;5.70;;;5.27;;
12788;SDS011;6458;42.710;23.192;2023-07-02T12:50:36;5.90;;;5.40;;
12788;SDS011;6458;42.710;23.192;2023-07-02T12:53:06;6.10;;;5.60;;
12788;SDS011;6458;42.710;23.192;2023-07-02T12:55:33;5.50;;;5.00;;
12788;SDS011;6458;42.710;23.192;2023-07-02T12:57:59;5.53;;;5.07;;
12788;SDS011;6458;42.710;23.192;2023-07-02T13:00:26;6.20;;;5.80;;
12788;SDS011;6458;42.710;23.192;2023-07-02T13:02:53;6.03;;;5.53;;
12788;SDS011;6458;42.710;23.192;2023-07-02T13:05:19;6.37;;;5.80;;
12788;SDS011;6458;42.710;23.192;2023-07-02T13:07:46;5.97;;;5.27;;
12788;SDS011;6458;42.710;23.192;2023-07-02T13:10:14;6.10;;;5.60;;
12788;SDS011;6458;42.710;23.192;2023-07-02T13:12:41;5.80;;;5.40;;
12788;SDS011;6458;42.710;23.192;2023-07-02T13:15:08;5.40;;;5.00;;
12788;SDS011;6458;42.710;23.192;2023-07-02T13:17:35;5.50;;;5.10;;
12788;SDS011;6458;42.710;23.192;2023-07-02T13:20:01;5.90;;;5.43;;
12788;SDS011;6458;42.710;23.192;2023-07-02T13:22:28;5.83;;;5.33;;
12788;SDS011;6458;42.710;23.192;2023-07-02T13:24:54;5.50;;;5.10;;
12788;SDS011;6458;42.710;23.192;2023-07-02T13:27:22;5.10;;;4.70;;
12788;SDS011;6458;42.710;23.192;2023-07-02T13:29:58;5.90;;;5.30;;
12788;SDS011;6458;42.710;23.192;2023-07-02T13:32:25;5.90;;;5.40;;
12788;SDS011;6458;42.710;23.192;2023-07-02T13:34:52;5.70;;;5.30;;
12788;SDS011;6458;42.710;23.192;2023-07-02T13:37:18;6.03;;;5.53;;
12788;SDS011;6458;42.710;23.192;2023-07-02T13:39:45;6.40;;;5.90;;
12788;SDS011;6458;42.710;23.192;2023-07-02T13:42:12;6.73;;;6.10;;
12788;SDS011;6458;42.710;23.192;2023-07-02T13:44:40;6.73;;;5.87;;
12788;SDS011;6458;42.710;23.192;2023-07-02T13:47:07;6.63;;;6.03;;
12788;SDS011;6458;42.710;23.192;2023-07-02T13:49:33;7.20;;;6.50;;
12788;SDS011;6458;42.710;23.192;2023-07-02T13:52:00;7.40;;;6.70;;
12788;SDS011;6458;42.710;23.192;2023-07-02T13:54:27;7.17;;;6.50;;
12788;SDS011;6458;42.710;23.192;2023-07-02T13:56:55;7.37;;;6.80;;
12788;SDS011;6458;42.710;23.192;2023-07-02T13:59:23;7.87;;;7.07;;
12788;SDS011;6458;42.710;23.192;2023-07-02T14:01:50;7.23;;;6.53;;
12788;SDS011;6458;42.710;23.192;2023-07-02T14:04:17;7.83;;;7.13;;
12788;SDS011;6458;42.710;23.192;2023-07-02T14:06:44;7.27;;;6.63;;
12788;SDS011;6458;42.710;23.192;2023-07-02T14:09:11;6.50;;;5.83;;
12788;SDS011;6458;42.710;23.192;2023-07-02T14:11:37;6.90;;;6.20;;
12788;SDS011;6458;42.710;23.192;2023-07-02T14:14:04;6.70;;;6.10;;
12788;SDS011;6458;42.710;23.192;2023-07-02T14:16:33;7.70;;;7.00;;
12788;SDS011;6458;42.710;23.192;2023-07-02T14:19:00;8.53;;;6.80;;
12788;SDS011;6458;42.710;23.192;2023-07-02T14:21:26;8.27;;;6.50;;
12788;SDS011;6458;42.710;23.192;2023-07-02T14:23:53;7.83;;;6.40;;
12788;SDS011;6458;42.710;23.192;2023-07-02T14:26:20;7.07;;;6.43;;
12788;SDS011;6458;42.710;23.192;2023-07-02T14:28:46;7.23;;;6.63;;
12788;SDS011;6458;42.710;23.192;2023-07-02T14:31:13;7.10;;;6.37;;
12788;SDS011;6458;42.710;23.192;2023-07-02T14:33:41;7.77;;;7.07;;
12788;SDS011;6458;42.710;23.192;2023-07-02T14:36:08;7.73;;;6.97;;
12788;SDS011;6458;42.710;23.192;2023-07-02T14:38:34;7.60;;;6.40;;
12788;SDS011;6458;42.710;23.192;2023-07-02T14:41:01;7.80;;;6.73;;
12788;SDS011;6458;42.710;23.192;2023-07-02T14:43:28;8.27;;;6.50;;
12788;SDS011;6458;42.710;23.192;2023-07-02T14:45:57;7.13;;;6.30;;
12788;SDS011;6458;42.710;23.192;2023-07-02T14:48:24;6.90;;;6.00;;
12788;SDS011;6458;42.710;23.192;2023-07-02T14:50:53;7.23;;;6.63;;
12788;SDS011;6458;42.710;23.192;2023-07-02T14:53:20;7.87;;;6.17;;
12788;SDS011;6458;42.710;23.192;2023-07-02T14:55:47;7.70;;;7.00;;
12788;SDS011;6458;42.710;23.192;2023-07-02T14:58:14;7.63;;;6.60;;
12788;SDS011;6458;42.710;23.192;2023-07-02T15:00:44;7.43;;;6.73;;
12788;SDS011;6458;42.710;23.192;2023-07-02T15:03:11;7.37;;;6.67;;
12788;SDS011;6458;42.710;23.192;2023-07-02T15:05:37;6.90;;;6.30;;
12788;SDS011;6458;42.710;23.192;2023-07-02T15:08:06;7.10;;;6.40;;
12788;SDS011;6458;42.710;23.192;2023-07-02T15:10:33;7.00;;;6.50;;
12788;SDS011;6458;42.710;23.192;2023-07-02T15:13:00;6.13;;;5.63;;
12788;SDS011;6458;42.710;23.192;2023-07-02T15:15:26;7.33;;;6.73;;
12788;SDS011;6458;42.710;23.192;2023-07-02T15:17:53;7.20;;;6.60;;
12788;SDS011;6458;42.710;23.192;2023-07-02T15:20:20;7.23;;;6.53;;
12788;SDS011;6458;42.710;23.192;2023-07-02T15:22:46;7.07;;;6.43;;
12788;SDS011;6458;42.710;23.192;2023-07-02T15:25:15;7.10;;;6.40;;
12788;SDS011;6458;42.710;23.192;2023-07-02T15:27:41;7.93;;;7.13;;
12788;SDS011;6458;42.710;23.192;2023-07-02T15:30:08;7.17;;;6.57;;
12788;SDS011;6458;42.710;23.192;2023-07-02T15:32:35;7.87;;;7.17;;
12788;SDS011;6458;42.710;23.192;2023-07-02T15:35:02;8.43;;;7.00;;
12788;SDS011;6458;42.710;23.192;2023-07-02T15:37:28;7.00;;;6.40;;
12788;SDS011;6458;42.710;23.192;2023-07-02T15:39:55;7.50;;;6.80;;
12788;SDS011;6458;42.710;23.192;2023-07-02T15:42:23;7.90;;;7.10;;
12788;SDS011;6458;42.710;23.192;2023-07-02T15:44:54;7.63;;;6.93;;
12788;SDS011;6458;42.710;23.192;2023-07-02T15:47:21;8.20;;;7.40;;
12788;SDS011;6458;42.710;23.192;2023-07-02T15:49:48;7.70;;;7.00;;
12788;SDS011;6458;42.710;23.192;2023-07-02T15:52:15;7.93;;;7.07;;